createdAt,value
2019-05-22T00:02:10.447Z,1.97
2019-05-22T00:05:18.421Z,2.27
2019-05-22T00:08:23.688Z,2.37
2019-05-22T00:11:30.100Z,2.03
2019-05-22T00:14:36.247Z,2.00
2019-05-22T00:17:41.350Z,2.10
2019-05-22T00:20:46.815Z,2.23
2019-05-22T00:23:54.975Z,2.13
2019-05-22T00:27:01.172Z,2.73
2019-05-22T00:30:07.150Z,2.80
2019-05-22T00:33:11.950Z,2.57
2019-05-22T00:36:17.925Z,2.80
2019-05-22T00:39:23.779Z,2.63
2019-05-22T00:42:28.148Z,3.13
2019-05-22T00:45:33.504Z,3.10
2019-05-22T00:48:41.616Z,4.00
2019-05-22T00:52:06.078Z,3.93
2019-05-22T00:55:25.135Z,5.17
2019-05-22T00:58:40.167Z,5.07
2019-05-22T01:01:47.762Z,5.13
2019-05-22T01:04:54.224Z,5.67
2019-05-22T01:08:00.196Z,5.53
2019-05-22T01:11:06.807Z,6.43
2019-05-22T01:14:12.800Z,6.50
2019-05-22T01:17:17.754Z,6.63
2019-05-22T01:20:26.300Z,7.00
2019-05-22T01:23:33.150Z,7.50
2019-05-22T01:26:39.165Z,7.30
2019-05-22T01:29:46.235Z,8.13
2019-05-22T01:32:50.954Z,8.57
2019-05-22T01:36:13.536Z,9.33
2019-05-22T01:39:31.432Z,10.90
2019-05-22T01:42:41.706Z,10.37
2019-05-22T01:45:54.436Z,11.23
2019-05-22T01:49:03.143Z,10.77
2019-05-22T01:52:09.424Z,11.20
2019-05-22T01:55:14.980Z,12.07
2019-05-22T01:58:21.773Z,10.70
2019-05-22T02:01:27.260Z,10.07
2019-05-22T02:04:31.676Z,9.70
2019-05-22T02:07:36.946Z,7.93
2019-05-22T02:10:43.641Z,8.77
2019-05-22T02:13:54.253Z,9.50
2019-05-22T02:16:59.435Z,8.60
2019-05-22T02:20:06.569Z,8.20
2019-05-22T02:23:12.544Z,8.20
2019-05-22T02:26:17.991Z,8.07
2019-05-22T02:29:23.045Z,8.27
2019-05-22T02:32:29.499Z,7.10
2019-05-22T02:35:34.489Z,8.00
2019-05-22T02:38:40.035Z,7.63
2019-05-22T02:41:48.829Z,8.07
2019-05-22T02:44:54.083Z,7.70
2019-05-22T02:48:00.911Z,7.80
2019-05-22T02:51:05.657Z,6.90
2019-05-22T02:54:11.036Z,7.77
2019-05-22T02:57:15.796Z,6.93
2019-05-22T03:00:22.488Z,7.30
2019-05-22T03:03:28.945Z,6.63
2019-05-22T03:06:35.294Z,7.07
2019-05-22T03:09:41.098Z,6.70
2019-05-22T03:12:46.688Z,6.70
2019-05-22T03:15:52.544Z,6.40
2019-05-22T03:19:08.509Z,7.27
2019-05-22T03:22:19.013Z,6.97
2019-05-22T03:25:24.794Z,6.23
2019-05-22T03:28:29.822Z,6.73
2019-05-22T03:31:34.740Z,6.33
2019-05-22T03:34:40.734Z,7.17
2019-05-22T03:37:45.996Z,6.27
2019-05-22T03:40:53.694Z,5.83
2019-05-22T03:43:58.581Z,6.80
2019-05-22T03:47:05.095Z,5.87
2019-05-22T03:50:10.681Z,6.30
2019-05-22T03:53:17.966Z,6.40
2019-05-22T03:56:23.126Z,5.47
2019-05-22T03:59:27.472Z,5.83
2019-05-22T04:02:32.082Z,6.10
2019-05-22T04:05:36.438Z,6.20
2019-05-22T04:08:41.477Z,6.67
2019-05-22T04:11:47.257Z,5.90
2019-05-22T04:14:52.714Z,6.80
2019-05-22T04:18:08.301Z,6.03
2019-05-22T04:21:13.303Z,6.43
2019-05-22T04:24:17.828Z,6.50
2019-05-22T04:27:22.744Z,6.27
2019-05-22T04:30:27.768Z,6.13
2019-05-22T04:33:32.582Z,6.37
2019-05-22T04:36:37.732Z,6.53
2019-05-22T04:39:43.992Z,6.17
2019-05-22T04:42:50.637Z,7.00
2019-05-22T04:45:57.177Z,7.07
2019-05-22T04:49:01.870Z,7.27
2019-05-22T04:52:07.408Z,6.83
2019-05-22T04:55:12.758Z,7.07
2019-05-22T04:58:22.169Z,7.07
2019-05-22T05:01:27.802Z,7.87
2019-05-22T05:04:32.233Z,7.30
2019-05-22T05:07:37.915Z,7.17
2019-05-22T05:10:44.373Z,7.60
2019-05-22T05:13:48.918Z,6.90
2019-05-22T05:16:53.506Z,7.90
2019-05-22T05:19:58.072Z,8.23
2019-05-22T05:23:02.834Z,8.77
2019-05-22T05:26:07.690Z,8.57
2019-05-22T05:29:27.549Z,9.40
2019-05-22T05:32:31.938Z,9.13
2019-05-22T05:35:37.290Z,10.10
2019-05-22T05:38:42.138Z,10.27
2019-05-22T05:41:46.731Z,10.90
2019-05-22T05:44:51.479Z,10.47
2019-05-22T05:47:57.902Z,10.87
2019-05-22T05:51:36.343Z,10.83
2019-05-22T05:54:43.645Z,11.43
2019-05-22T05:58:29.765Z,11.93
2019-05-22T06:01:39.295Z,12.47
2019-05-22T06:04:44.084Z,11.93
2019-05-22T06:07:48.499Z,12.33
2019-05-22T06:11:50.603Z,12.13
2019-05-22T06:14:57.010Z,11.97
2019-05-22T06:18:34.405Z,12.37
2019-05-22T06:21:44.331Z,11.57
2019-05-22T06:25:01.995Z,12.63
2019-05-22T06:28:06.911Z,12.77
2019-05-22T06:31:17.565Z,11.67
2019-05-22T06:34:22.420Z,12.20
2019-05-22T06:37:35.339Z,11.47
2019-05-22T06:40:43.423Z,11.47
2019-05-22T06:44:25.015Z,10.87
2019-05-22T06:47:29.921Z,7.23
2019-05-22T06:50:34.354Z,7.53
2019-05-22T06:53:38.831Z,8.63
2019-05-22T06:56:43.641Z,10.37
2019-05-22T06:59:49.209Z,12.00
2019-05-22T07:02:53.617Z,11.97
2019-05-22T07:05:58.631Z,11.90
2019-05-22T07:09:03.894Z,12.20
2019-05-22T07:12:10.134Z,10.87
2019-05-22T07:16:20.575Z,10.63
2019-05-22T07:19:27.065Z,10.60
2019-05-22T07:22:31.441Z,10.83
2019-05-22T07:25:36.371Z,9.13
2019-05-22T07:28:41.200Z,8.23
2019-05-22T07:31:45.849Z,6.53
2019-05-22T07:34:50.270Z,6.57
2019-05-22T07:37:55.376Z,7.17
2019-05-22T07:41:00.059Z,5.07
2019-05-22T07:44:04.448Z,6.03
2019-05-22T07:47:10.462Z,5.50
2019-05-22T07:50:16.019Z,6.73
2019-05-22T07:53:22.577Z,6.30
2019-05-22T07:56:28.138Z,6.73
2019-05-22T07:59:32.353Z,7.77
2019-05-22T08:02:41.560Z,6.73
2019-05-22T08:05:49.929Z,4.87
2019-05-22T08:08:55.566Z,6.37
2019-05-22T08:11:59.602Z,6.67
2019-05-22T08:15:04.449Z,5.50
2019-05-22T08:18:09.363Z,5.93
2019-05-22T08:21:13.935Z,5.63
2019-05-22T08:24:18.021Z,6.10
2019-05-22T08:27:23.806Z,5.30
2019-05-22T08:30:28.260Z,5.37
2019-05-22T08:33:34.467Z,5.27
2019-05-22T08:36:39.676Z,4.77
2019-05-22T08:39:44.270Z,5.00
2019-05-22T08:42:49.005Z,4.20
2019-05-22T08:45:53.507Z,4.57
2019-05-22T08:48:57.817Z,4.60
2019-05-22T08:52:01.924Z,4.40
2019-05-22T08:55:06.946Z,4.57
2019-05-22T08:58:11.434Z,4.30
2019-05-22T09:01:16.259Z,4.53
2019-05-22T09:04:20.354Z,5.00
2019-05-22T09:07:25.146Z,4.33
2019-05-22T09:10:29.736Z,4.87
2019-05-22T09:13:33.956Z,5.47
2019-05-22T09:16:38.169Z,6.03
2019-05-22T09:19:42.314Z,6.30
2019-05-22T09:22:47.122Z,6.23
2019-05-22T09:25:51.279Z,6.17
2019-05-22T09:28:55.531Z,6.00
2019-05-22T09:31:59.602Z,6.17
2019-05-22T09:35:03.841Z,5.57
2019-05-22T09:38:07.990Z,5.30
2019-05-22T09:41:12.406Z,5.33
2019-05-22T09:44:17.503Z,4.83
2019-05-22T09:47:24.409Z,5.30
2019-05-22T09:50:29.094Z,4.47
2019-05-22T09:53:33.603Z,4.40
2019-05-22T09:56:38.464Z,4.77
2019-05-22T09:59:42.589Z,4.63
2019-05-22T10:02:46.697Z,5.23
2019-05-22T10:05:50.958Z,5.67
2019-05-22T10:08:54.955Z,5.60
2019-05-22T10:11:59.569Z,5.97
2019-05-22T10:15:05.898Z,6.00
2019-05-22T10:18:11.026Z,5.70
2019-05-22T10:21:16.722Z,5.97
2019-05-22T10:24:22.287Z,5.77
2019-05-22T10:27:26.656Z,6.50
2019-05-22T10:30:31.126Z,6.93
2019-05-22T10:33:36.555Z,6.83
2019-05-22T10:36:43.088Z,4.90
2019-05-22T10:39:47.332Z,5.50
2019-05-22T10:42:53.005Z,4.70
2019-05-22T10:45:58.161Z,4.93
2019-05-22T10:49:02.818Z,5.43
2019-05-22T10:52:07.674Z,5.40
2019-05-22T10:55:13.107Z,5.13
2019-05-22T10:58:17.752Z,5.33
2019-05-22T11:01:23.343Z,6.03
2019-05-22T11:04:29.563Z,5.73
2019-05-22T11:07:34.432Z,5.37
2019-05-22T11:10:38.802Z,5.60
2019-05-22T11:13:59.953Z,6.30
2019-05-22T11:16:49.415Z,6.43
2019-05-22T11:19:53.837Z,6.80
2019-05-22T11:23:01.837Z,7.83
2019-05-22T11:26:06.314Z,8.33
2019-05-22T11:29:10.711Z,8.43
2019-05-22T11:32:15.443Z,8.90
2019-05-22T11:35:22.219Z,9.27
2019-05-22T11:38:27.305Z,9.37
2019-05-22T11:41:32.765Z,9.23
2019-05-22T11:44:37.192Z,8.97
2019-05-22T11:47:42.526Z,8.50
2019-05-22T11:50:47.377Z,7.77
2019-05-22T11:54:08.019Z,7.00
2019-05-22T11:56:59.191Z,6.23
2019-05-22T12:00:03.936Z,6.97
2019-05-22T12:03:08.883Z,6.73
2019-05-22T12:06:13.679Z,6.23
2019-05-22T12:09:19.262Z,7.40
2019-05-22T12:12:25.059Z,7.13
2019-05-22T12:15:31.933Z,7.30
2019-05-22T12:18:37.460Z,6.57
2019-05-22T12:21:46.276Z,7.70
2019-05-22T12:24:51.072Z,7.63
2019-05-22T12:27:56.506Z,7.57
2019-05-22T12:31:01.754Z,7.80
2019-05-22T12:34:06.684Z,8.03
2019-05-22T12:37:11.818Z,7.73
2019-05-22T12:40:19.242Z,7.77
2019-05-22T12:43:23.959Z,7.83
2019-05-22T12:46:29.135Z,8.30
2019-05-22T12:49:33.792Z,8.77
2019-05-22T12:52:38.891Z,8.93
2019-05-22T12:55:44.511Z,9.00
2019-05-22T12:58:49.442Z,8.50
2019-05-22T13:01:54.418Z,9.57
2019-05-22T13:05:04.185Z,8.47
2019-05-22T13:08:11.398Z,9.10
2019-05-22T13:11:16.589Z,7.60
2019-05-22T13:14:21.049Z,7.80
2019-05-22T13:17:27.897Z,7.67
2019-05-22T13:20:42.646Z,7.60
2019-05-22T13:23:45.818Z,7.57
2019-05-22T13:26:51.263Z,8.20
2019-05-22T13:29:57.766Z,7.13
2019-05-22T13:33:02.277Z,7.47
2019-05-22T13:36:09.663Z,7.43
2019-05-22T13:39:14.642Z,7.30
2019-05-22T13:42:19.248Z,7.50
2019-05-22T13:45:29.289Z,7.27
2019-05-22T13:48:31.311Z,7.53
2019-05-22T13:51:36.759Z,7.33
2019-05-22T13:54:43.973Z,7.60
2019-05-22T13:57:49.870Z,7.60
2019-05-22T14:00:54.418Z,8.50
2019-05-22T14:03:59.010Z,8.27
2019-05-22T14:07:04.693Z,8.60
2019-05-22T14:10:09.745Z,8.67
2019-05-22T14:13:15.486Z,8.90
2019-05-22T14:16:21.628Z,9.00
2019-05-22T14:19:26.081Z,9.07
2019-05-22T14:22:30.602Z,8.97
2019-05-22T14:25:35.485Z,10.03
2019-05-22T14:28:41.702Z,9.73
2019-05-22T14:31:46.483Z,9.90
2019-05-22T14:34:51.470Z,9.97
2019-05-22T14:37:57.159Z,9.30
2019-05-22T14:41:02.592Z,10.10
2019-05-22T14:44:07.089Z,11.00
2019-05-22T14:47:15.618Z,11.27
2019-05-22T14:50:19.594Z,11.70
2019-05-22T14:53:23.970Z,11.57
2019-05-22T14:56:28.432Z,12.37
2019-05-22T14:59:33.678Z,11.50
2019-05-22T15:02:38.147Z,11.00
2019-05-22T15:05:45.447Z,9.43
2019-05-22T15:08:49.991Z,9.40
2019-05-22T15:11:54.611Z,8.23
2019-05-22T15:14:59.058Z,6.53
2019-05-22T15:18:03.569Z,7.07
2019-05-22T15:21:09.699Z,6.00
2019-05-22T15:24:15.665Z,4.70
2019-05-22T15:27:23.150Z,5.83
2019-05-22T15:30:28.293Z,5.17
2019-05-22T15:33:34.991Z,3.97
2019-05-22T15:36:42.144Z,4.37
2019-05-22T15:39:47.361Z,4.30
2019-05-22T15:42:54.529Z,4.37
2019-05-22T15:46:01.510Z,4.23
2019-05-22T15:49:09.758Z,4.37
2019-05-22T15:52:16.817Z,4.50
2019-05-22T15:55:25.637Z,4.50
2019-05-22T15:58:31.383Z,4.30
2019-05-22T16:01:38.295Z,4.33
2019-05-22T16:04:44.379Z,4.50
2019-05-22T16:07:50.282Z,4.83
2019-05-22T16:10:59.962Z,4.77
2019-05-22T16:14:06.458Z,4.57
2019-05-22T16:17:12.103Z,4.87
2019-05-22T16:20:20.471Z,4.67
2019-05-22T16:23:26.304Z,4.97
2019-05-22T16:26:31.859Z,4.37
2019-05-22T16:29:38.279Z,4.93
2019-05-22T16:32:44.739Z,5.10
2019-05-22T16:35:49.880Z,5.10
2019-05-22T16:38:55.358Z,5.53
2019-05-22T16:42:01.819Z,5.43
2019-05-22T16:45:07.824Z,5.90
2019-05-22T16:48:27.770Z,6.50
2019-05-22T16:51:22.637Z,6.43
2019-05-22T16:54:28.213Z,6.97
2019-05-22T16:57:34.353Z,7.33
2019-05-22T17:00:39.843Z,7.50
2019-05-22T17:03:45.729Z,7.43
2019-05-22T17:06:50.800Z,7.63
2019-05-22T17:09:56.093Z,8.27
2019-05-22T17:13:02.565Z,8.13
2019-05-22T17:16:08.721Z,8.53
2019-05-22T17:19:26.253Z,8.50
2019-05-22T17:22:21.531Z,8.20
2019-05-22T17:25:26.544Z,7.83
2019-05-22T17:28:31.660Z,8.00
2019-05-22T17:31:36.863Z,9.83
2019-05-22T17:34:41.970Z,9.97
2019-05-22T17:37:47.266Z,9.90
2019-05-22T17:40:52.411Z,9.97
2019-05-22T17:43:58.173Z,10.70
2019-05-22T17:47:06.755Z,11.47
2019-05-22T17:50:26.140Z,11.90
2019-05-22T17:53:24.167Z,12.17
2019-05-22T17:56:29.271Z,11.50
2019-05-22T17:59:34.671Z,12.37
2019-05-22T18:02:40.179Z,12.20
2019-05-22T18:05:45.473Z,11.17
2019-05-22T18:08:50.462Z,10.93
2019-05-22T18:11:55.179Z,10.53
2019-05-22T18:15:01.421Z,9.50
2019-05-22T18:18:09.717Z,9.63
2019-05-22T18:21:16.047Z,9.10
2019-05-22T18:24:24.375Z,8.57
2019-05-22T18:27:29.240Z,7.10
2019-05-22T18:30:37.211Z,5.47
2019-05-22T18:33:43.919Z,5.93
2019-05-22T18:36:50.347Z,5.20
2019-05-22T18:39:55.758Z,5.40
2019-05-22T18:43:03.845Z,5.90
2019-05-22T18:46:08.990Z,6.20
2019-05-22T18:49:13.764Z,5.93
2019-05-22T18:52:18.932Z,6.57
2019-05-22T18:55:23.728Z,6.20
2019-05-22T18:58:29.001Z,7.57
2019-05-22T19:01:33.849Z,9.77
2019-05-22T19:04:38.706Z,7.03
2019-05-22T19:07:43.706Z,6.37
2019-05-22T19:10:48.582Z,6.70
2019-05-22T19:13:53.568Z,22.83
2019-05-22T19:16:58.176Z,19.57
2019-05-22T19:20:02.853Z,15.63
2019-05-22T19:23:07.867Z,11.03
2019-05-22T19:26:13.885Z,12.90
2019-05-22T19:29:18.379Z,11.03
2019-05-22T19:32:23.325Z,10.83
2019-05-22T19:35:27.962Z,10.60
2019-05-22T19:38:34.243Z,9.17
2019-05-22T19:41:39.795Z,9.63
2019-05-22T19:44:44.728Z,6.97
2019-05-22T19:47:55.893Z,7.13
2019-05-22T19:51:03.236Z,6.73
2019-05-22T19:54:09.350Z,5.10
2019-05-22T19:57:13.895Z,4.77
2019-05-22T20:00:18.834Z,6.07
2019-05-22T20:03:23.932Z,6.10
2019-05-22T20:06:29.178Z,5.27
2019-05-22T20:09:34.845Z,4.83
2019-05-22T20:12:40.365Z,4.20
2019-05-22T20:15:45.468Z,4.37
2019-05-22T20:18:51.431Z,3.77
2019-05-22T20:22:00.172Z,3.23
2019-05-22T20:25:04.295Z,3.67
2019-05-22T20:28:10.294Z,3.10
2019-05-22T20:31:15.329Z,3.50
2019-05-22T20:34:20.076Z,3.93
2019-05-22T20:37:26.014Z,2.63
2019-05-22T20:40:31.643Z,3.20
2019-05-22T20:43:38.149Z,2.97
2019-05-22T20:46:45.587Z,2.43
2019-05-22T20:49:51.602Z,2.20
2019-05-22T20:53:00.240Z,2.17
2019-05-22T20:56:06.741Z,2.27
2019-05-22T20:59:13.114Z,1.93
2019-05-22T21:02:18.666Z,2.10
2019-05-22T21:05:24.388Z,2.20
2019-05-22T21:08:31.087Z,1.90
2019-05-22T21:11:37.739Z,1.87
2019-05-22T21:14:42.932Z,2.00
2019-05-22T21:17:48.139Z,2.00
2019-05-22T21:20:56.287Z,1.80
2019-05-22T21:24:11.506Z,2.00
2019-05-22T21:27:11.668Z,2.77
2019-05-22T21:30:16.941Z,2.30
2019-05-22T21:33:22.318Z,2.27
2019-05-22T21:36:27.812Z,2.40
2019-05-22T21:39:32.236Z,2.10
2019-05-22T21:42:39.580Z,1.90
2019-05-22T21:45:44.493Z,2.00
2019-05-22T21:48:53.307Z,1.80
2019-05-22T21:51:57.791Z,1.97
2019-05-22T21:55:02.181Z,2.10
2019-05-22T21:58:06.654Z,3.20
2019-05-22T22:01:20.091Z,2.13
2019-05-22T22:04:32.742Z,2.70
2019-05-22T22:07:37.970Z,2.40
2019-05-22T22:10:44.815Z,2.20
2019-05-22T22:13:51.140Z,2.50
2019-05-22T22:16:56.455Z,2.50
2019-05-22T22:20:02.204Z,2.97
2019-05-22T22:23:08.036Z,2.87
2019-05-22T22:26:24.855Z,2.40
2019-05-22T22:29:19.908Z,2.77
2019-05-22T22:32:26.996Z,2.63
2019-05-22T22:35:31.620Z,2.90
2019-05-22T22:38:38.096Z,2.80
2019-05-22T22:41:44.472Z,2.93
2019-05-22T22:44:54.247Z,3.47
2019-05-22T22:48:00.134Z,3.30
2019-05-22T22:51:26.088Z,3.10
2019-05-22T22:54:31.703Z,3.40
2019-05-22T22:57:36.071Z,3.60
2019-05-22T23:00:42.469Z,3.03
2019-05-22T23:03:48.995Z,3.40
2019-05-22T23:06:55.824Z,3.50
2019-05-22T23:10:01.896Z,3.43
2019-05-22T23:13:07.342Z,3.20
2019-05-22T23:16:11.724Z,3.20
2019-05-22T23:19:47.629Z,2.97
2019-05-22T23:22:50.393Z,2.60
2019-05-22T23:25:55.749Z,2.47
2019-05-22T23:29:00.124Z,2.13
2019-05-22T23:32:06.659Z,1.70
2019-05-22T23:35:11.745Z,1.90
2019-05-22T23:38:16.467Z,1.73
2019-05-22T23:41:23.509Z,1.60
2019-05-22T23:44:28.417Z,1.70
2019-05-22T23:47:33.679Z,1.23
2019-05-22T23:50:39.116Z,1.37
2019-05-22T23:53:45.418Z,1.20
2019-05-22T23:56:52.195Z,1.10
